createdAt,value
2022-12-28T00:01:38.002Z,3.85
2022-12-28T00:05:00.191Z,3.82
2022-12-28T00:08:33.517Z,3.80
2022-12-28T00:11:56.092Z,3.76
2022-12-28T00:15:18.460Z,3.72
2022-12-28T00:18:40.598Z,3.69
2022-12-28T00:22:03.089Z,3.68
2022-12-28T00:25:25.889Z,3.68
2022-12-28T00:28:49.201Z,3.70
2022-12-28T00:32:11.433Z,3.69
2022-12-28T00:35:33.766Z,3.70
2022-12-28T00:38:56.101Z,3.68
2022-12-28T00:42:19.061Z,3.63
2022-12-28T00:45:43.602Z,3.65
2022-12-28T00:49:05.994Z,3.68
2022-12-28T00:52:28.857Z,3.70
2022-12-28T00:55:51.107Z,3.72
2022-12-28T00:59:13.250Z,3.72
2022-12-28T01:02:35.378Z,3.73
2022-12-28T01:05:59.943Z,3.76
2022-12-28T01:09:22.346Z,3.75
2022-12-28T01:12:48.102Z,3.73
2022-12-28T01:16:11.684Z,3.71
2022-12-28T01:19:33.623Z,3.62
2022-12-28T01:22:56.135Z,3.53
2022-12-28T01:26:18.801Z,3.45
2022-12-28T01:29:40.871Z,3.36
2022-12-28T01:33:03.317Z,3.27
2022-12-28T01:36:26.245Z,3.16
2022-12-28T01:39:48.387Z,3.05
2022-12-28T01:43:13.497Z,2.96
2022-12-28T01:46:38.439Z,2.85
2022-12-28T01:50:05.892Z,2.73
2022-12-28T01:53:28.368Z,2.64
2022-12-28T01:56:51.577Z,2.57
2022-12-28T02:00:15.686Z,2.50
2022-12-28T02:03:40.419Z,2.43
2022-12-28T02:07:05.432Z,2.36
2022-12-28T02:10:40.837Z,2.25
2022-12-28T02:14:09.490Z,2.20
2022-12-28T02:17:35.001Z,2.16
2022-12-28T02:21:15.018Z,2.13
2022-12-28T02:25:12.879Z,2.11
2022-12-28T02:28:56.330Z,2.04
2022-12-28T02:32:27.797Z,2.02
2022-12-28T02:35:55.115Z,2.01
2022-12-28T02:39:20.905Z,2.03
2022-12-28T02:42:44.843Z,2.05
2022-12-28T02:46:28.630Z,2.07
2022-12-28T02:50:08.957Z,2.06
2022-12-28T02:53:46.241Z,2.05
2022-12-28T02:57:14.549Z,2.04
2022-12-28T03:00:43.223Z,2.02
2022-12-28T03:04:11.206Z,1.97
2022-12-28T03:07:56.271Z,1.90
2022-12-28T03:11:25.516Z,1.84
2022-12-28T03:14:51.116Z,1.74
2022-12-28T03:18:33.663Z,1.66
2022-12-28T03:22:15.141Z,1.57
2022-12-28T03:25:58.037Z,1.49
2022-12-28T03:29:44.549Z,1.44
2022-12-28T03:33:08.014Z,1.39
2022-12-28T03:36:35.201Z,1.33
2022-12-28T03:40:00.414Z,1.31
2022-12-28T03:43:41.121Z,1.31
2022-12-28T03:47:08.603Z,1.32
2022-12-28T03:50:34.517Z,1.35
2022-12-28T03:53:59.117Z,1.38
2022-12-28T03:57:24.132Z,1.42
2022-12-28T04:00:47.613Z,1.49
2022-12-28T04:04:11.237Z,1.57
2022-12-28T04:07:33.279Z,1.63
2022-12-28T04:11:00.589Z,1.69
2022-12-28T04:14:23.258Z,1.75
2022-12-28T04:17:45.710Z,1.81
2022-12-28T04:21:08.272Z,1.89
2022-12-28T04:24:33.075Z,1.95
2022-12-28T04:27:55.480Z,2.01
2022-12-28T04:31:40.355Z,2.04
2022-12-28T04:35:06.828Z,2.06
2022-12-28T04:38:36.955Z,2.07
2022-12-28T04:41:59.600Z,2.05
2022-12-28T04:45:22.578Z,2.04
2022-12-28T04:48:44.780Z,2.01
2022-12-28T04:52:06.752Z,1.96
2022-12-28T04:55:32.411Z,1.93
2022-12-28T04:58:56.656Z,1.91
2022-12-28T05:02:21.141Z,1.89
2022-12-28T05:05:45.405Z,1.89
2022-12-28T05:09:07.922Z,1.90
2022-12-28T05:12:30.268Z,1.91
2022-12-28T05:15:53.123Z,1.93
2022-12-28T05:19:16.315Z,1.96
2022-12-28T05:22:41.230Z,1.99
2022-12-28T05:26:07.336Z,2.04
2022-12-28T05:29:32.212Z,2.07
2022-12-28T05:32:55.110Z,2.12
2022-12-28T05:36:18.316Z,2.15
2022-12-28T05:39:40.786Z,2.17
2022-12-28T05:43:03.053Z,2.20
2022-12-28T05:46:26.595Z,2.21
2022-12-28T05:49:48.855Z,2.23
2022-12-28T05:53:11.811Z,2.26
2022-12-28T05:56:34.550Z,2.25
2022-12-28T05:59:57.393Z,2.25
2022-12-28T06:03:22.268Z,2.23
2022-12-28T06:06:45.231Z,2.22
2022-12-28T06:10:08.680Z,2.19
2022-12-28T06:13:31.755Z,2.15
2022-12-28T06:16:54.068Z,2.10
2022-12-28T06:20:16.744Z,2.05
2022-12-28T06:23:40.491Z,2.01
2022-12-28T06:27:02.871Z,1.97
2022-12-28T06:30:25.685Z,1.95
2022-12-28T06:33:49.659Z,1.93
2022-12-28T06:37:12.507Z,1.92
2022-12-28T06:41:02.833Z,1.93
2022-12-28T06:44:17.788Z,1.93
2022-12-28T06:47:40.197Z,1.93
2022-12-28T06:51:04.328Z,1.96
2022-12-28T06:54:26.652Z,2.00
2022-12-28T06:57:49.381Z,2.05
2022-12-28T07:01:14.067Z,2.09
2022-12-28T07:04:36.476Z,2.13
2022-12-28T07:07:58.541Z,2.19
2022-12-28T07:11:21.673Z,2.23
2022-12-28T07:14:44.051Z,2.30
2022-12-28T07:18:06.973Z,2.33
2022-12-28T07:21:32.313Z,2.33
2022-12-28T07:24:54.651Z,2.34
2022-12-28T07:28:17.205Z,2.36
2022-12-28T07:31:45.451Z,2.35
2022-12-28T07:35:09.983Z,2.35
2022-12-28T07:38:33.586Z,2.36
2022-12-28T07:41:56.168Z,2.35
2022-12-28T07:45:18.307Z,2.35
2022-12-28T07:48:41.338Z,2.35
2022-12-28T07:52:03.778Z,2.35
2022-12-28T07:55:29.318Z,2.32
2022-12-28T07:58:54.174Z,2.31
2022-12-28T08:02:16.200Z,2.33
2022-12-28T08:05:40.522Z,2.33
2022-12-28T08:09:05.010Z,2.34
2022-12-28T08:12:27.113Z,2.36
2022-12-28T08:15:54.454Z,2.38
2022-12-28T08:19:18.036Z,2.41
2022-12-28T08:22:40.418Z,2.46
2022-12-28T08:26:06.620Z,2.51
2022-12-28T08:29:28.990Z,2.56
2022-12-28T08:32:51.552Z,2.61
2022-12-28T08:36:14.511Z,2.67
2022-12-28T08:41:05.188Z,2.78
2022-12-28T08:45:37.174Z,2.88
2022-12-28T08:49:05.966Z,2.92
2022-12-28T08:52:33.856Z,2.97
2022-12-28T08:56:07.261Z,2.99
2022-12-28T08:59:34.212Z,2.98
2022-12-28T09:03:03.700Z,2.97
2022-12-28T09:06:35.249Z,2.98
2022-12-28T09:10:06.970Z,2.98
2022-12-28T09:13:34.573Z,3.00
2022-12-28T09:17:02.256Z,3.02
2022-12-28T09:20:32.609Z,3.06
2022-12-28T09:23:59.774Z,3.11
2022-12-28T09:27:26.696Z,3.16
2022-12-28T09:30:57.953Z,3.22
2022-12-28T09:34:36.124Z,3.28
2022-12-28T09:38:03.616Z,3.32
2022-12-28T09:41:34.187Z,3.34
2022-12-28T09:45:06.679Z,3.38
2022-12-28T09:48:37.988Z,3.39
2022-12-28T09:52:29.268Z,3.42
2022-12-28T09:56:03.675Z,3.45
2022-12-28T09:59:35.697Z,3.49
2022-12-28T10:03:08.791Z,3.51
2022-12-28T10:06:37.002Z,3.54
2022-12-28T10:10:04.950Z,3.58
2022-12-28T10:13:54.585Z,3.66
2022-12-28T10:17:31.282Z,3.74
2022-12-28T10:21:00.876Z,3.83
2022-12-28T10:24:32.190Z,3.91
2022-12-28T10:28:03.069Z,3.94
2022-12-28T10:31:43.596Z,3.96
2022-12-28T10:35:29.351Z,4.00
2022-12-28T10:38:58.320Z,4.03
2022-12-28T10:42:28.569Z,4.04
2022-12-28T10:45:56.080Z,4.04
2022-12-28T10:49:23.729Z,4.05
2022-12-28T10:53:00.477Z,4.07
2022-12-28T10:56:30.247Z,4.09
2022-12-28T11:00:14.911Z,4.11
2022-12-28T11:03:44.400Z,4.13
2022-12-28T11:07:31.155Z,4.16
2022-12-28T11:11:02.705Z,4.22
2022-12-28T11:14:34.445Z,4.32
2022-12-28T11:18:03.170Z,4.42
2022-12-28T11:21:29.658Z,4.48
2022-12-28T11:25:00.011Z,4.51
2022-12-28T11:28:26.812Z,4.53
2022-12-28T11:32:01.606Z,4.55
2022-12-28T11:35:33.265Z,4.58
2022-12-28T11:39:00.024Z,4.57
2022-12-28T11:42:56.445Z,4.53
2022-12-28T11:46:43.157Z,4.49
2022-12-28T11:50:58.694Z,4.51
2022-12-28T11:54:40.683Z,4.57
2022-12-28T11:58:44.675Z,4.64
2022-12-28T12:02:44.865Z,4.70
2022-12-28T12:06:13.100Z,4.72
2022-12-28T12:09:49.528Z,4.75
2022-12-28T12:13:44.986Z,4.78
2022-12-28T12:17:18.667Z,4.77
2022-12-28T12:20:54.116Z,4.76
2022-12-28T12:24:29.004Z,4.73
2022-12-28T12:27:59.790Z,4.71
2022-12-28T12:31:31.533Z,4.70
2022-12-28T12:35:03.805Z,4.70
2022-12-28T12:38:47.472Z,4.72
2022-12-28T12:42:24.513Z,4.72
2022-12-28T12:45:59.466Z,4.72
2022-12-28T12:49:39.100Z,4.75
2022-12-28T12:53:19.695Z,4.79
2022-12-28T12:56:53.591Z,4.81
2022-12-28T13:00:22.630Z,4.84
2022-12-28T13:03:51.076Z,4.89
2022-12-28T13:07:25.396Z,4.92
2022-12-28T13:10:55.822Z,4.94
2022-12-28T13:14:25.026Z,4.94
2022-12-28T13:21:53.848Z,4.89
2022-12-28T13:25:29.862Z,4.88
2022-12-28T13:29:01.617Z,4.84
2022-12-28T13:32:35.995Z,4.80
2022-12-28T13:36:15.379Z,4.77
2022-12-28T13:39:42.649Z,4.78
2022-12-28T13:43:49.033Z,4.82
2022-12-28T13:47:23.950Z,4.86
2022-12-28T13:50:52.653Z,4.91
2022-12-28T13:54:19.802Z,4.94
2022-12-28T13:57:55.735Z,4.99
2022-12-28T14:01:29.494Z,5.04
2022-12-28T14:04:57.255Z,5.04
2022-12-28T14:08:25.124Z,5.05
2022-12-28T14:11:52.144Z,5.06
2022-12-28T14:15:19.876Z,5.06
2022-12-28T14:18:48.168Z,5.06
2022-12-28T14:22:32.026Z,5.04
2022-12-28T14:26:00.003Z,5.02
2022-12-28T14:29:32.589Z,5.01
2022-12-28T14:33:02.564Z,5.04
2022-12-28T14:36:34.202Z,5.07
2022-12-28T14:40:06.295Z,5.13
2022-12-28T14:43:37.997Z,5.18
2022-12-28T14:47:25.654Z,5.23
2022-12-28T14:51:02.846Z,5.29
2022-12-28T14:54:30.774Z,5.33
2022-12-28T14:58:03.917Z,5.36
2022-12-28T15:01:43.621Z,5.36
2022-12-28T15:05:38.772Z,5.35
2022-12-28T15:09:08.715Z,5.32
2022-12-28T15:12:36.064Z,5.31
2022-12-28T15:16:06.882Z,5.32
2022-12-28T15:19:34.032Z,5.34
2022-12-28T15:23:00.350Z,5.35
2022-12-28T15:26:28.258Z,5.38
2022-12-28T15:30:05.310Z,5.43
2022-12-28T15:33:33.716Z,5.47
2022-12-28T15:37:00.457Z,5.50
2022-12-28T15:40:29.345Z,5.52
2022-12-28T15:43:56.644Z,5.53
2022-12-28T15:47:24.257Z,5.54
2022-12-28T15:50:51.603Z,5.55
2022-12-28T15:54:23.225Z,5.56
2022-12-28T15:57:50.367Z,5.55
2022-12-28T16:01:19.892Z,5.55
2022-12-28T16:04:48.156Z,5.57
2022-12-28T16:08:15.211Z,5.58
2022-12-28T16:11:43.236Z,5.59
2022-12-28T16:15:13.668Z,5.61
2022-12-28T16:18:42.161Z,5.63
2022-12-28T16:22:09.584Z,5.65
2022-12-28T16:29:17.408Z,5.71
2022-12-28T16:32:44.298Z,5.71
2022-12-28T16:36:16.443Z,5.73
2022-12-28T16:39:44.311Z,5.73
2022-12-28T16:43:11.832Z,5.72
2022-12-28T16:46:39.271Z,5.70
2022-12-28T16:50:06.695Z,5.68
2022-12-28T16:53:35.203Z,5.65
2022-12-28T16:57:04.359Z,5.62
2022-12-28T17:00:32.791Z,5.60
2022-12-28T17:04:04.021Z,5.57
2022-12-28T17:07:35.327Z,5.57
2022-12-28T17:11:12.086Z,5.56
2022-12-28T17:14:39.670Z,5.59
2022-12-28T17:18:08.289Z,5.60
2022-12-28T17:21:39.175Z,5.63
2022-12-28T17:25:07.573Z,5.66
2022-12-28T17:28:35.934Z,5.68
2022-12-28T17:32:04.138Z,5.71
2022-12-28T17:35:32.912Z,5.73
2022-12-28T17:38:59.688Z,5.75
2022-12-28T17:42:25.960Z,5.75
2022-12-28T17:45:52.627Z,5.74
2022-12-28T17:49:22.478Z,5.78
2022-12-28T17:52:49.556Z,5.79
2022-12-28T17:56:23.101Z,5.81
2022-12-28T17:59:54.823Z,5.83
2022-12-28T18:03:31.576Z,5.83
2022-12-28T18:07:00.490Z,5.86
2022-12-28T18:10:28.206Z,5.89
2022-12-28T18:14:00.257Z,5.91
2022-12-28T18:17:27.485Z,5.93
2022-12-28T18:21:04.244Z,5.96
2022-12-28T18:24:33.799Z,6.00
2022-12-28T18:28:01.762Z,6.04
2022-12-28T18:31:30.572Z,6.04
2022-12-28T18:35:01.666Z,6.06
2022-12-28T18:38:29.466Z,6.08
2022-12-28T18:41:56.232Z,6.10
2022-12-28T18:45:24.212Z,6.10
2022-12-28T18:49:09.540Z,6.12
2022-12-28T18:52:37.939Z,6.12
2022-12-28T18:56:07.094Z,6.14
2022-12-28T18:59:37.663Z,6.15
2022-12-28T19:03:06.220Z,6.19
2022-12-28T19:06:33.341Z,6.22
2022-12-28T19:10:25.601Z,6.24
2022-12-28T19:13:53.417Z,6.23
2022-12-28T19:17:24.871Z,6.25
2022-12-28T19:21:02.790Z,6.25
2022-12-28T19:24:37.349Z,6.22
2022-12-28T19:28:13.821Z,6.19
2022-12-28T19:31:55.381Z,6.15
2022-12-28T19:35:36.204Z,6.12
2022-12-28T19:39:04.297Z,6.09
2022-12-28T19:42:34.167Z,6.07
2022-12-28T19:46:07.087Z,6.04
2022-12-28T19:49:33.797Z,6.03
2022-12-28T19:53:04.831Z,6.06
2022-12-28T19:56:33.240Z,6.09
2022-12-28T19:59:59.686Z,6.12
2022-12-28T20:03:26.882Z,6.14
2022-12-28T20:06:54.412Z,6.18
2022-12-28T20:10:22.284Z,6.24
2022-12-28T20:13:52.648Z,6.29
2022-12-28T20:17:19.960Z,6.31
2022-12-28T20:21:17.924Z,6.34
2022-12-28T20:24:35.008Z,6.35
2022-12-28T20:28:04.053Z,6.35
2022-12-28T20:31:33.890Z,6.34
2022-12-28T20:35:00.827Z,6.34
2022-12-28T20:38:29.348Z,6.31
2022-12-28T20:42:13.821Z,6.30
2022-12-28T20:45:52.277Z,6.27
2022-12-28T20:49:23.809Z,6.25
2022-12-28T20:52:53.372Z,6.24
2022-12-28T20:56:21.568Z,6.25
2022-12-28T20:59:49.344Z,6.27
2022-12-28T21:03:16.886Z,6.30
2022-12-28T21:06:46.022Z,6.33
2022-12-28T21:10:17.422Z,6.36
2022-12-28T21:13:47.055Z,6.40
2022-12-28T21:17:15.151Z,6.43
2022-12-28T21:20:51.434Z,6.45
2022-12-28T21:24:22.622Z,6.47
2022-12-28T21:27:58.942Z,6.51
2022-12-28T21:31:28.713Z,6.54
2022-12-28T21:34:59.858Z,6.54
2022-12-28T21:38:28.739Z,6.51
2022-12-28T21:42:01.978Z,6.48
2022-12-28T21:45:33.473Z,6.45
2022-12-28T21:49:03.855Z,6.42
2022-12-28T21:52:38.141Z,6.39
2022-12-28T21:56:05.575Z,6.38
2022-12-28T21:59:35.608Z,6.37
2022-12-28T22:03:23.284Z,6.41
2022-12-28T22:06:50.253Z,6.42
2022-12-28T22:10:36.905Z,6.47
2022-12-28T22:14:05.383Z,6.49
2022-12-28T22:17:35.754Z,6.53
2022-12-28T22:21:08.103Z,6.58
2022-12-28T22:24:37.971Z,6.60
2022-12-28T22:28:09.486Z,6.59
2022-12-28T22:31:40.693Z,6.59
2022-12-28T22:35:13.382Z,6.57
2022-12-28T22:38:40.882Z,6.53
2022-12-28T22:42:08.706Z,6.55
2022-12-28T22:45:36.454Z,6.56
2022-12-28T22:49:03.432Z,6.53
2022-12-28T22:52:30.162Z,6.54
2022-12-28T22:56:20.916Z,6.57
2022-12-28T22:59:48.751Z,6.61
2022-12-28T23:03:17.773Z,6.64
2022-12-28T23:06:44.539Z,6.67
2022-12-28T23:10:13.248Z,6.70
2022-12-28T23:13:42.014Z,6.75
2022-12-28T23:17:10.572Z,6.80
2022-12-28T23:21:00.669Z,6.81
2022-12-28T23:24:59.277Z,6.83
2022-12-28T23:28:31.911Z,6.79
2022-12-28T23:32:01.816Z,6.73
2022-12-28T23:35:29.790Z,6.68
2022-12-28T23:38:59.387Z,6.63
2022-12-28T23:42:33.794Z,6.60
2022-12-28T23:46:09.747Z,6.56
2022-12-28T23:49:39.807Z,6.56
2022-12-28T23:53:12.196Z,6.56
2022-12-28T23:56:40.293Z,6.57
